Time;durP1;ratioP1;P1;durP2;ratioP2;P2;SDS_P1;SDS_P2;PMS_P1;PMS_P2;Temp;Humidity;BMP_temperature;BMP_pressure;BME280_temperature;BME280_humidity;BME280_pressure;Samples;Min_cycle;Max_cycle;Signal;HPM_P1;HPM_P2
2022/05/28 00:00:08;;;;;;;5.27;3.50;;;13.40;99.90;;;;;;5072787;28;21311;-68
2022/05/28 00:02:35;;;;;;;3.23;2.93;;;13.30;99.90;;;;;;5073525;28;20506;-69
2022/05/28 00:05:03;;;;;;;4.50;4.10;;;13.30;99.90;;;;;;5073367;28;20467;-68
2022/05/28 00:07:30;;;;;;;4.10;3.70;;;13.20;99.90;;;;;;5073449;28;20466;-68
2022/05/28 00:09:57;;;;;;;7.13;3.93;;;13.10;99.90;;;;;;5072774;28;20829;-69
2022/05/28 00:12:24;;;;;;;5.27;3.83;;;13.00;99.90;;;;;;5073186;28;20490;-67
2022/05/28 00:14:51;;;;;;;5.73;3.93;;;13.00;99.90;;;;;;5073204;28;20836;-68
2022/05/28 00:17:17;;;;;;;5.37;4.40;;;12.90;99.90;;;;;;5073448;28;20490;-69
2022/05/28 00:19:44;;;;;;;4.80;3.87;;;12.80;99.90;;;;;;5072468;28;20462;-68
2022/05/28 00:22:12;;;;;;;8.03;4.60;;;12.70;99.90;;;;;;5073045;28;20478;-69
2022/05/28 00:24:39;;;;;;;6.77;4.10;;;12.70;99.90;;;;;;5073056;28;20853;-69
2022/05/28 00:27:06;;;;;;;6.13;4.13;;;12.60;99.90;;;;;;5073041;28;20485;-68
2022/05/28 00:29:34;;;;;;;6.20;4.07;;;12.60;99.90;;;;;;5072588;28;20462;-69
2022/05/28 00:32:00;;;;;;;11.43;4.63;;;12.70;99.90;;;;;;5073147;28;20478;-69
2022/05/28 00:34:27;;;;;;;5.80;4.17;;;12.70;99.90;;;;;;5073144;28;20455;-68
2022/05/28 00:36:54;;;;;;;5.97;3.93;;;12.70;99.90;;;;;;5072813;28;20454;-68
2022/05/28 00:39:22;;;;;;;4.17;3.77;;;12.70;99.90;;;;;;5072582;28;20458;-68
2022/05/28 00:41:49;;;;;;;7.13;4.37;;;12.60;99.90;;;;;;5072689;28;20478;-69
2022/05/28 00:44:16;;;;;;;6.73;4.20;;;12.60;99.90;;;;;;5072880;28;20561;-68
2022/05/28 00:46:44;;;;;;;8.43;4.33;;;12.50;99.90;;;;;;5072944;28;20498;-68
2022/05/28 00:49:17;;;;;;;7.20;3.63;;;12.50;99.90;;;;;;5070269;28;20462;-68
2022/05/28 00:51:48;;;;;;;6.33;3.50;;;12.40;99.90;;;;;;5072353;28;20458;-68
2022/05/28 00:54:16;;;;;;;5.40;3.97;;;12.40;99.90;;;;;;5072679;28;20474;-68
2022/05/28 00:56:44;;;;;;;4.43;3.83;;;12.40;99.90;;;;;;5072546;28;20465;-67
2022/05/28 00:59:11;;;;;;;10.57;3.83;;;12.40;99.90;;;;;;5071944;28;20473;-69
2022/05/28 01:01:42;;;;;;;6.93;4.00;;;12.40;99.90;;;;;;5071926;28;20482;-68
2022/05/28 01:04:15;;;;;;;6.23;4.27;;;12.40;99.90;;;;;;5072220;28;20514;-69
2022/05/28 01:06:49;;;;;;;7.03;3.90;;;12.30;99.90;;;;;;5072305;28;20498;-69
2022/05/28 01:09:25;;;;;;;6.53;4.30;;;12.30;99.90;;;;;;5071757;28;20520;-66
2022/05/28 01:12:03;;;;;;;4.70;4.30;;;12.30;99.90;;;;;;5072208;28;20829;-68
2022/05/28 01:14:41;;;;;;;7.63;3.83;;;12.20;99.90;;;;;;5072307;28;20465;-67
2022/05/28 01:17:14;;;;;;;5.50;4.47;;;12.20;99.90;;;;;;5071164;28;20454;-68
2022/05/28 01:19:52;;;;;;;6.63;4.73;;;12.20;99.90;;;;;;5071567;28;20520;-69
2022/05/28 01:22:27;;;;;;;5.53;4.07;;;12.20;99.90;;;;;;5071869;28;20497;-68
2022/05/28 01:25:04;;;;;;;6.40;4.07;;;12.10;99.90;;;;;;5071815;28;20454;-68
2022/05/28 01:27:35;;;;;;;6.83;4.37;;;12.10;99.90;;;;;;5072006;28;20465;-68
2022/05/28 01:30:06;;;;;;;7.17;4.03;;;12.10;99.90;;;;;;5070965;28;20843;-68
2022/05/28 01:32:34;;;;;;;5.70;4.20;;;12.10;99.90;;;;;;5071732;28;20479;-67
2022/05/28 01:35:04;;;;;;;6.13;3.95;;;12.10;99.90;;;;;;5071517;28;20470;-68
2022/05/28 01:37:31;;;;;;;6.77;4.20;;;12.10;99.90;;;;;;5071856;28;20200;-68
2022/05/28 01:40:01;;;;;;;10.32;4.00;;;12.00;99.90;;;;;;5070916;28;20463;-67
2022/05/28 01:42:28;;;;;;;5.90;4.10;;;12.00;99.90;;;;;;5071375;28;20870;-68
2022/05/28 01:44:57;;;;;;;7.20;3.77;;;12.00;99.90;;;;;;5070897;28;20457;-68
2022/05/28 01:47:25;;;;;;;6.50;3.60;;;11.90;99.90;;;;;;5071369;28;20465;-68
2022/05/28 01:49:53;;;;;;;6.72;3.85;;;11.80;99.90;;;;;;5070630;28;20582;-69
2022/05/28 01:52:22;;;;;;;6.68;3.55;;;11.80;99.90;;;;;;5071364;28;20212;-68
2022/05/28 01:54:50;;;;;;;5.10;3.67;;;11.70;99.90;;;;;;5071137;28;20201;-67
2022/05/28 01:57:17;;;;;;;8.70;3.43;;;11.70;99.90;;;;;;5071299;28;20466;-67
2022/05/28 01:59:44;;;;;;;6.55;3.38;;;11.60;99.90;;;;;;5070563;28;20473;-68
2022/05/28 02:02:14;;;;;;;10.80;3.60;;;11.60;99.90;;;;;;5070983;28;20889;-69
2022/05/28 02:04:46;;;;;;;6.30;3.50;;;11.50;99.90;;;;;;5071089;28;20458;-67
2022/05/28 02:07:14;;;;;;;8.70;3.43;;;11.50;99.90;;;;;;5071121;28;20458;-68
2022/05/28 02:09:44;;;;;;;7.78;3.53;;;11.40;99.90;;;;;;5070512;28;20531;-69
2022/05/28 02:12:21;;;;;;;4.93;3.33;;;11.40;99.90;;;;;;5070863;28;20208;-69
2022/05/28 02:14:58;;;;;;;7.47;3.45;;;11.40;99.90;;;;;;5061668;28;20208;-69
2022/05/28 02:17:38;;;;;;;4.90;3.70;;;11.30;99.90;;;;;;5070913;28;20246;-69
2022/05/28 02:20:15;;;;;;;4.63;3.00;;;11.30;99.90;;;;;;5070153;28;20283;-69
2022/05/28 02:22:49;;;;;;;4.85;3.60;;;11.30;99.90;;;;;;5070854;28;20224;-69
2022/05/28 02:25:21;;;;;;;8.25;3.40;;;11.30;99.90;;;;;;5071114;28;20204;-68
2022/05/28 02:27:50;;;;;;;4.65;3.30;;;11.20;99.90;;;;;;5070902;28;20197;-68
2022/05/28 02:30:17;;;;;;;6.05;3.30;;;11.20;99.90;;;;;;5070317;28;20208;-68
2022/05/28 02:32:45;;;;;;;7.82;3.90;;;11.10;99.90;;;;;;5070730;28;20220;-68
2022/05/28 02:35:13;;;;;;;6.50;3.05;;;11.10;99.90;;;;;;5070824;28;20201;-68
2022/05/28 02:37:40;;;;;;;6.38;3.72;;;11.00;99.90;;;;;;5070931;28;20232;-68
2022/05/28 02:40:08;;;;;;;9.55;3.67;;;11.00;99.90;;;;;;5068892;28;20674;-68
2022/05/28 02:42:34;;;;;;;5.45;3.65;;;10.90;99.90;;;;;;5070319;28;20224;-69
2022/05/28 02:45:01;;;;;;;5.70;3.50;;;10.90;99.90;;;;;;5070381;28;20200;-68
2022/05/28 02:47:28;;;;;;;5.22;3.15;;;10.80;99.90;;;;;;5070553;28;20723;-68
2022/05/28 02:49:56;;;;;;;5.40;3.55;;;10.80;99.90;;;;;;5069990;28;20212;-69
2022/05/28 02:52:22;;;;;;;7.18;3.10;;;10.80;99.90;;;;;;5070627;28;20231;-67
2022/05/28 02:54:50;;;;;;;8.40;3.25;;;10.80;99.90;;;;;;5070620;28;20200;-68
2022/05/28 02:57:16;;;;;;;4.50;2.47;;;10.70;99.90;;;;;;5071146;28;20197;-69
2022/05/28 02:59:43;;;;;;;6.97;3.15;;;10.70;99.90;;;;;;5070068;28;20204;-69
2022/05/28 03:02:10;;;;;;;7.20;2.85;;;10.60;99.90;;;;;;5070256;28;20231;-68
2022/05/28 03:04:36;;;;;;;4.82;3.25;;;10.50;99.90;;;;;;5070606;28;20204;-69
2022/05/28 03:07:06;;;;;;;4.72;3.08;;;10.50;99.90;;;;;;5070360;28;20219;-69
2022/05/28 03:09:33;;;;;;;5.25;2.85;;;10.40;99.90;;;;;;5068618;28;20261;-69
2022/05/28 03:12:00;;;;;;;6.47;2.55;;;10.40;99.90;;;;;;5069976;28;20231;-69
2022/05/28 03:14:27;;;;;;;4.88;2.75;;;10.40;99.90;;;;;;5068759;28;20200;-69
2022/05/28 03:16:54;;;;;;;5.10;2.60;;;10.40;99.90;;;;;;5069679;28;20283;-68
2022/05/28 03:19:21;;;;;;;4.38;2.30;;;10.30;99.90;;;;;;5069725;28;20204;-68
2022/05/28 03:21:47;;;;;;;6.18;2.50;;;10.30;99.90;;;;;;5069876;28;20220;-68
2022/05/28 03:24:16;;;;;;;7.22;2.78;;;10.30;99.90;;;;;;5070767;28;20571;-69
2022/05/28 03:26:42;;;;;;;7.28;2.65;;;10.20;99.90;;;;;;5074276;28;20574;-67
2022/05/28 03:29:09;;;;;;;7.53;3.00;;;10.20;99.90;;;;;;5073176;28;20212;-67
2022/05/28 03:31:36;;;;;;;8.50;3.05;;;10.20;99.90;;;;;;5073973;28;20200;-68
2022/05/28 03:34:02;;;;;;;6.70;3.53;;;10.10;99.90;;;;;;5073662;28;20224;-68
2022/05/28 03:36:30;;;;;;;4.10;2.78;;;10.10;99.90;;;;;;5073998;28;20200;-69
2022/05/28 03:38:57;;;;;;;5.28;2.60;;;10.10;99.90;;;;;;5073137;28;20208;-68
2022/05/28 03:41:27;;;;;;;5.22;3.08;;;10.10;99.90;;;;;;5073756;28;20876;-68
2022/05/28 03:43:53;;;;;;;8.63;2.97;;;10.10;99.90;;;;;;5073520;28;20220;-68
2022/05/28 03:46:24;;;;;;;4.43;2.45;;;10.00;99.90;;;;;;5073847;28;20204;-68
2022/05/28 03:48:51;;;;;;;6.00;3.20;;;10.00;99.90;;;;;;5073400;28;20197;-69
2022/05/28 03:51:18;;;;;;;4.93;2.50;;;9.90;99.90;;;;;;5073860;28;20204;-68
2022/05/28 03:53:45;;;;;;;5.32;2.72;;;9.90;99.90;;;;;;5073747;28;20295;-68
2022/05/28 03:56:11;;;;;;;5.68;2.80;;;9.90;99.90;;;;;;5073883;28;20208;-69
2022/05/28 03:58:39;;;;;;;4.35;2.97;;;9.80;99.90;;;;;;5073291;28;20298;-68
2022/05/28 04:01:06;;;;;;;6.50;2.85;;;9.90;99.90;;;;;;5073417;28;20200;-67
2022/05/28 04:03:34;;;;;;;8.05;3.22;;;9.80;99.90;;;;;;5073691;28;20246;-68
2022/05/28 04:06:01;;;;;;;6.05;2.70;;;9.80;99.90;;;;;;5071996;28;20205;-68
2022/05/28 04:08:28;;;;;;;6.13;2.20;;;9.80;99.90;;;;;;5072838;28;20204;-68
2022/05/28 04:10:55;;;;;;;3.42;2.83;;;9.70;99.90;;;;;;5073106;28;20208;-69
2022/05/28 04:13:22;;;;;;;5.20;3.15;;;9.80;99.90;;;;;;5072988;28;20223;-68
2022/05/28 04:15:51;;;;;;;6.88;3.50;;;9.70;99.90;;;;;;5072960;28;20196;-68
2022/05/28 04:18:17;;;;;;;7.10;2.80;;;9.70;99.90;;;;;;5072279;28;20664;-68
2022/05/28 04:20:44;;;;;;;5.97;2.45;;;9.70;99.90;;;;;;5072584;28;20193;-68
2022/05/28 04:23:11;;;;;;;4.03;2.67;;;9.80;99.90;;;;;;5069939;28;20220;-68
2022/05/28 04:25:38;;;;;;;8.10;3.20;;;9.80;99.90;;;;;;5104976;22;20226;-91
2022/05/28 04:28:05;;;;;;;13.05;2.80;;;9.90;99.90;;;;;;5097223;28;20218;-91
2022/05/28 04:30:32;;;;;;;5.07;2.53;;;9.90;99.90;;;;;;5095163;28;20204;-91
2022/05/28 04:33:00;;;;;;;6.57;2.58;;;9.90;99.90;;;;;;5094838;28;20196;-91
2022/05/28 04:35:26;;;;;;;3.55;2.45;;;9.90;99.90;;;;;;5090084;28;20238;-91
2022/05/28 04:37:53;;;;;;;3.80;2.28;;;9.90;99.90;;;;;;5079209;28;20193;-91
2022/05/28 04:40:20;;;;;;;4.80;2.65;;;9.90;99.90;;;;;;5084401;28;20200;-91
2022/05/28 04:42:47;;;;;;;5.82;3.28;;;9.90;99.90;;;;;;5074820;28;20223;-91
2022/05/28 04:45:14;;;;;;;6.43;2.80;;;10.00;99.90;;;;;;5074989;28;20460;-91
2022/05/28 04:47:40;;;;;;;9.43;3.08;;;10.00;99.90;;;;;;5077629;28;20660;-91
2022/05/28 04:50:10;;;;;;;9.20;2.83;;;10.00;99.90;;;;;;5086711;28;20222;-91
2022/05/28 04:52:38;;;;;;;7.30;2.70;;;10.00;99.90;;;;;;5062470;28;20214;-90
2022/05/28 04:55:06;;;;;;;6.03;2.40;;;10.00;99.90;;;;;;5064317;28;20308;-91
2022/05/28 04:57:33;;;;;;;5.32;3.25;;;10.00;99.90;;;;;;5086616;28;20202;-91
2022/05/28 04:59:59;;;;;;;6.00;2.25;;;10.00;99.90;;;;;;5093930;28;20249;-91
2022/05/28 05:02:26;;;;;;;4.97;3.00;;;10.00;99.90;;;;;;5073996;28;20729;-91
2022/05/28 05:04:56;;;;;;;5.15;2.65;;;10.00;99.90;;;;;;5068186;28;20717;-91
2022/05/28 05:07:24;;;;;;;4.88;2.05;;;10.00;99.90;;;;;;5063536;28;20197;-91
2022/05/28 05:09:51;;;;;;;3.50;2.53;;;10.10;99.90;;;;;;5065145;28;20200;-91
2022/05/28 05:12:19;;;;;;;7.80;3.05;;;10.10;99.90;;;;;;5082026;28;20195;-91
2022/05/28 05:14:45;;;;;;;7.68;2.65;;;10.20;99.90;;;;;;5083892;28;20192;-91
2022/05/28 05:17:12;;;;;;;7.38;3.60;;;10.10;99.90;;;;;;5083847;28;20200;-91
2022/05/28 05:19:39;;;;;;;7.65;3.30;;;10.10;99.90;;;;;;5079231;28;20208;-91
2022/05/28 05:22:06;;;;;;;6.57;2.83;;;10.20;99.90;;;;;;5074005;28;20224;-91
2022/05/28 05:24:34;;;;;;;7.35;3.58;;;10.20;99.90;;;;;;5074124;28;20207;-91
2022/05/28 05:27:01;;;;;;;7.05;2.70;;;10.20;99.90;;;;;;5073820;28;20589;-91
2022/05/28 05:29:28;;;;;;;4.75;2.20;;;10.30;99.90;;;;;;5071851;28;20688;-91
2022/05/28 05:31:55;;;;;;;10.15;3.25;;;10.30;99.90;;;;;;5091396;28;20207;-91
2022/05/28 05:34:22;;;;;;;4.32;2.70;;;10.30;99.90;;;;;;5097383;28;20189;-91
2022/05/28 05:36:49;;;;;;;7.30;3.13;;;10.30;99.90;;;;;;5090674;28;20231;-91
2022/05/28 05:39:24;;;;;;;6.15;3.08;;;10.30;99.90;;;;;;5077882;28;20211;-90
2022/05/28 05:41:53;;;;;;;8.25;3.28;;;10.30;99.90;;;;;;5073335;28;20595;-90
2022/05/28 05:44:20;;;;;;;8.80;2.97;;;10.40;99.90;;;;;;5072941;28;20196;-90
2022/05/28 05:46:47;;;;;;;5.15;2.92;;;10.30;99.90;;;;;;5073110;28;20227;-91
2022/05/28 05:49:13;;;;;;;7.40;3.08;;;10.30;99.90;;;;;;5074162;28;20579;-91
2022/05/28 05:51:45;;;;;;;6.13;2.92;;;10.40;99.90;;;;;;5073184;28;20678;-91
2022/05/28 05:54:12;;;;;;;8.43;3.30;;;10.40;99.90;;;;;;5072446;28;20201;-90
2022/05/28 05:56:39;;;;;;;5.95;2.75;;;10.40;99.90;;;;;;5071624;28;20599;-91
2022/05/28 05:59:07;;;;;;;5.78;2.50;;;10.50;99.90;;;;;;5072203;28;20574;-91
2022/05/28 06:01:34;;;;;;;8.10;2.97;;;10.40;99.90;;;;;;5067782;28;20231;-91
2022/05/28 06:04:01;;;;;;;6.05;4.38;;;10.50;99.90;;;;;;5069991;28;20189;-91
2022/05/28 06:06:27;;;;;;;5.32;3.00;;;10.50;99.90;;;;;;5070026;28;20535;-90
2022/05/28 06:08:54;;;;;;;7.53;3.08;;;10.60;99.90;;;;;;5069907;28;20207;-91
2022/05/28 06:11:21;;;;;;;10.15;3.20;;;10.60;99.90;;;;;;5070287;28;20197;-91
2022/05/28 06:13:48;;;;;;;5.30;2.75;;;10.60;99.90;;;;;;5070056;28;20188;-90
2022/05/28 06:16:17;;;;;;;5.25;2.67;;;10.70;99.90;;;;;;5068571;28;20228;-91
2022/05/28 06:18:44;;;;;;;3.63;2.65;;;10.80;99.90;;;;;;5070197;28;20196;-91
2022/05/28 06:21:11;;;;;;;4.47;2.78;;;10.80;99.90;;;;;;5070492;28;20200;-91
2022/05/28 06:23:41;;;;;;;4.60;2.90;;;10.90;99.90;;;;;;5069985;28;20223;-91
2022/05/28 06:26:08;;;;;;;7.70;2.58;;;10.90;99.90;;;;;;5066831;28;20220;-91
2022/05/28 06:28:35;;;;;;;8.70;2.70;;;11.00;99.90;;;;;;5062277;28;20198;-91
2022/05/28 06:31:03;;;;;;;5.25;2.90;;;11.00;99.90;;;;;;5049594;28;20189;-91
2022/05/28 06:33:31;;;;;;;7.00;2.80;;;11.10;99.90;;;;;;5047746;28;20193;-90
2022/05/28 06:35:59;;;;;;;6.32;2.90;;;11.20;99.90;;;;;;5050259;28;20216;-90
2022/05/28 06:38:27;;;;;;;8.10;2.80;;;11.30;99.90;;;;;;5054798;28;20201;-90
2022/05/28 06:40:54;;;;;;;4.88;2.53;;;11.30;99.90;;;;;;5054436;28;20193;-90
2022/05/28 06:43:21;;;;;;;5.65;2.45;;;11.40;99.90;;;;;;5049108;28;20623;-90
2022/05/28 06:45:48;;;;;;;4.95;2.60;;;11.50;99.90;;;;;;5048497;28;20256;-91
2022/05/28 06:48:15;;;;;;;3.30;2.10;;;11.50;99.90;;;;;;5053467;28;20197;-89
2022/05/28 06:53:28;;;;;;;1.90;1.67;;;11.50;99.90;;;;;;5067517;28;20219;-89
2022/05/28 06:55:55;;;;;;;7.05;2.40;;;11.50;99.90;;;;;;5070390;28;20216;-90
2022/05/28 06:58:22;;;;;;;3.97;2.17;;;11.60;99.90;;;;;;5055651;28;20200;-92
2022/05/28 07:01:47;;;;;;;4.40;1.92;;;11.70;99.90;;;;;;5064232;28;20459;-93
2022/05/28 07:04:14;;;;;;;2.75;1.60;;;11.80;99.90;;;;;;5067588;28;20211;-94
2022/05/28 07:09:23;;;;;;;2.45;2.05;;;11.90;99.90;;;;;;5066695;28;20211;-94
2022/05/28 07:11:50;;;;;;;5.50;1.83;;;11.90;99.90;;;;;;5085542;28;20184;-95
2022/05/28 07:14:40;;;;;;;3.70;1.70;;;12.00;99.90;;;;;;5076649;28;20444;-94
2022/05/28 07:17:20;;;;;;;7.30;2.90;;;12.00;99.90;;;;;;5073308;28;20848;-94
2022/05/28 07:23:30;;;;;;;3.53;2.58;;;12.10;99.90;;;;;;5066534;28;20216;-94
2022/05/28 07:26:02;;;;;;;5.80;2.27;;;12.10;99.90;;;;;;5071656;28;20220;-94
2022/05/28 07:28:33;;;;;;;5.07;2.03;;;12.20;99.90;;;;;;5084379;28;20455;-95
2022/05/28 07:31:47;;;;;;;2.63;1.77;;;12.30;99.90;;;;;;5076413;28;20200;-95
2022/05/28 07:34:14;;;;;;;5.47;3.43;;;12.40;99.90;;;;;;5093435;22;20234;-71
2022/05/28 07:36:40;;;;;;;3.50;1.73;;;12.50;99.90;;;;;;5086146;28;20461;-71
2022/05/28 07:39:08;;;;;;;2.77;1.83;;;12.50;99.90;;;;;;5084489;28;20452;-71
2022/05/28 07:41:37;;;;;;;9.93;2.17;;;12.60;99.90;;;;;;5086559;28;20457;-70
2022/05/28 07:44:04;;;;;;;5.43;2.13;;;12.60;99.90;;;;;;5066776;28;20486;-70
2022/05/28 07:46:33;;;;;;;4.47;2.00;;;12.70;99.90;;;;;;5066843;28;20466;-71
2022/05/28 07:49:01;;;;;;;4.60;2.60;;;12.80;99.90;;;;;;5065879;28;20467;-70
2022/05/28 07:51:28;;;;;;;6.27;1.80;;;12.90;99.90;;;;;;5067017;28;20459;-70
2022/05/28 07:53:55;;;;;;;4.07;1.80;;;13.00;99.90;;;;;;5066363;28;20470;-69
2022/05/28 07:56:23;;;;;;;7.13;2.20;;;13.10;99.90;;;;;;5066923;28;20847;-70
2022/05/28 07:58:51;;;;;;;3.20;1.80;;;13.20;99.90;;;;;;5065453;28;20450;-70
2022/05/28 08:01:19;;;;;;;3.53;2.07;;;13.40;99.90;;;;;;5066761;28;20966;-70
2022/05/28 08:03:46;;;;;;;5.23;1.87;;;13.50;99.90;;;;;;5065973;28;20490;-70
2022/05/28 08:06:13;;;;;;;2.60;1.30;;;13.60;99.90;;;;;;5066381;28;20466;-70
2022/05/28 08:08:39;;;;;;;3.97;1.70;;;13.60;99.90;;;;;;5065656;28;20462;-71
2022/05/28 08:11:06;;;;;;;3.50;1.50;;;13.50;99.10;;;;;;5066257;28;20470;-70
2022/05/28 08:13:34;;;;;;;4.03;1.53;;;13.60;96.50;;;;;;5070666;28;20523;-69
2022/05/28 08:16:02;;;;;;;5.27;1.83;;;13.60;98.90;;;;;;5069223;28;20613;-71
2022/05/28 08:18:29;;;;;;;1.83;1.50;;;13.60;99.40;;;;;;5069095;28;20450;-71
2022/05/28 08:23:43;;;;;;;4.47;1.77;;;13.80;99.70;;;;;;5070205;28;20484;-71
2022/05/28 08:26:11;;;;;;;2.87;1.53;;;13.80;99.60;;;;;;5069873;28;20451;-69
2022/05/28 08:28:41;;;;;;;3.90;1.60;;;14.00;99.90;;;;;;5068125;28;20470;-68
2022/05/28 08:31:08;;;;;;;4.50;1.57;;;14.20;98.60;;;;;;5068342;28;20451;-70
2022/05/28 08:33:36;;;;;;;5.40;1.60;;;14.30;99.90;;;;;;5062464;28;20479;-70
2022/05/28 08:36:03;;;;;;;3.63;1.70;;;14.40;99.60;;;;;;5049066;28;20451;-68
2022/05/28 08:38:30;;;;;;;4.23;1.47;;;14.60;99.90;;;;;;5060820;28;20463;-69
2022/05/28 08:40:59;;;;;;;4.60;1.93;;;14.80;99.90;;;;;;5059947;28;21494;-70
2022/05/28 08:43:30;;;;;;;3.10;1.40;;;14.90;98.70;;;;;;5059156;28;20515;-70
2022/05/28 08:45:59;;;;;;;3.63;2.10;;;15.00;98.80;;;;;;5051863;28;20467;-70
2022/05/28 08:48:35;;;;;;;3.37;1.57;;;15.20;98.60;;;;;;5048871;28;20463;-71
2022/05/28 08:51:06;;;;;;;2.80;1.47;;;15.30;99.10;;;;;;5047648;28;20972;-70
2022/05/28 08:53:37;;;;;;;3.67;1.60;;;15.50;98.30;;;;;;5064846;28;20475;-70
2022/05/28 08:56:05;;;;;;;3.93;1.67;;;15.60;99.00;;;;;;5069024;28;20454;-70
2022/05/28 08:58:34;;;;;;;2.80;1.70;;;15.70;97.90;;;;;;5068967;28;20485;-71
2022/05/28 09:01:06;;;;;;;3.90;1.73;;;15.70;97.70;;;;;;5060548;28;20459;-70
2022/05/28 09:03:45;;;;;;;4.27;1.53;;;15.80;97.20;;;;;;5048514;28;20581;-70
2022/05/28 09:06:15;;;;;;;4.80;2.00;;;16.00;97.60;;;;;;5049499;28;20470;-70
2022/05/28 09:08:45;;;;;;;3.03;1.47;;;16.10;98.70;;;;;;5047650;28;20455;-71
2022/05/28 09:11:16;;;;;;;6.03;2.03;;;16.10;96.90;;;;;;5049208;28;20463;-70
2022/05/28 09:13:46;;;;;;;4.03;1.70;;;15.90;96.70;;;;;;5048998;28;20475;-71
2022/05/28 09:16:22;;;;;;;6.23;2.10;;;15.60;96.40;;;;;;5048976;28;20988;-70
2022/05/28 09:18:50;;;;;;;2.77;1.87;;;15.50;97.90;;;;;;5048489;28;20455;-70
2022/05/28 09:21:18;;;;;;;4.50;1.67;;;15.70;97.30;;;;;;5049022;28;20474;-73
2022/05/28 09:23:48;;;;;;;2.23;1.50;;;15.90;96.40;;;;;;5048342;28;20488;-72
2022/05/28 09:26:20;;;;;;;2.60;1.80;;;16.10;95.60;;;;;;5049339;28;20482;-70
2022/05/28 09:28:59;;;;;;;4.83;1.70;;;16.10;95.70;;;;;;5048839;28;20464;-70
2022/05/28 09:31:39;;;;;;;3.97;1.63;;;16.10;97.10;;;;;;5047758;28;20878;-70
2022/05/28 09:34:26;;;;;;;3.43;1.67;;;16.20;96.10;;;;;;5074945;28;20457;-70
2022/05/28 09:37:02;;;;;;;2.90;1.50;;;16.30;97.90;;;;;;5089258;28;20972;-70
2022/05/28 09:39:44;;;;;;;7.80;2.20;;;16.60;96.00;;;;;;5088375;28;20545;-69
2022/05/28 09:42:23;;;;;;;2.63;1.43;;;16.60;95.10;;;;;;5067598;28;20478;-70
2022/05/28 09:45:07;;;;;;;2.67;1.30;;;16.40;95.70;;;;;;5067899;28;20490;-70
2022/05/28 09:47:46;;;;;;;3.80;1.57;;;16.40;95.50;;;;;;5069111;28;20465;-70
2022/05/28 09:50:21;;;;;;;3.47;1.47;;;16.70;96.40;;;;;;5067676;28;20486;-70
2022/05/28 09:55:42;;;;;;;5.87;1.80;;;16.90;94.80;;;;;;5068161;28;20926;-68
2022/05/28 09:58:18;;;;;;;3.93;1.50;;;16.70;93.70;;;;;;5067621;28;20538;-68
2022/05/28 10:00:48;;;;;;;2.43;1.60;;;16.50;95.70;;;;;;5068264;28;20953;-67
2022/05/28 10:06:14;;;;;;;3.97;1.40;;;16.40;96.00;;;;;;5068460;28;20592;-70
2022/05/28 10:08:42;;;;;;;2.00;1.40;;;16.50;96.10;;;;;;5067109;28;20455;-69
2022/05/28 10:11:15;;;;;;;4.13;1.40;;;16.70;95.10;;;;;;5066111;28;20966;-70
2022/05/28 10:13:44;;;;;;;4.10;1.50;;;17.00;96.10;;;;;;5067906;28;20500;-70
2022/05/28 10:16:12;;;;;;;3.23;1.60;;;17.20;95.90;;;;;;5067549;28;20929;-70
2022/05/28 10:18:45;;;;;;;2.67;1.43;;;17.50;96.30;;;;;;5067885;28;20835;-71
2022/05/28 10:21:15;;;;;;;3.83;1.73;;;17.70;94.10;;;;;;5067203;28;20454;-71
2022/05/28 10:23:44;;;;;;;5.70;1.57;;;18.00;94.80;;;;;;5067069;28;20497;-69
2022/05/28 10:26:18;;;;;;;9.33;2.03;;;18.00;93.40;;;;;;5067619;28;20798;-71
2022/05/28 10:28:48;;;;;;;11.17;3.10;;;18.00;93.20;;;;;;5066454;28;20453;-70
2022/05/28 10:31:16;;;;;;;2.77;1.77;;;17.80;93.40;;;;;;5067258;28;20450;-70
2022/05/28 10:33:45;;;;;;;4.70;1.50;;;17.60;94.30;;;;;;5066174;28;21012;-70
2022/05/28 10:36:17;;;;;;;2.77;1.47;;;17.60;95.10;;;;;;5067346;28;20462;-70
2022/05/28 10:38:44;;;;;;;2.90;1.27;;;17.70;93.70;;;;;;5047355;28;20519;-70
2022/05/28 10:41:25;;;;;;;1.80;1.40;;;17.80;93.60;;;;;;5047276;28;20466;-69
2022/05/28 10:43:52;;;;;;;2.70;1.37;;;17.80;93.30;;;;;;5046573;28;20483;-71
2022/05/28 10:46:27;;;;;;;1.93;1.43;;;17.90;93.20;;;;;;5046769;28;20463;-70
2022/05/28 10:49:06;;;;;;;4.40;1.57;;;17.90;93.40;;;;;;5047371;28;20455;-70
2022/05/28 10:51:46;;;;;;;2.80;1.53;;;17.80;94.60;;;;;;5047403;28;20459;-70
2022/05/28 10:54:25;;;;;;;3.00;1.70;;;17.50;93.00;;;;;;5046323;28;20487;-69
2022/05/28 10:57:03;;;;;;;3.03;1.47;;;17.20;93.90;;;;;;5046987;28;20498;-70
2022/05/28 10:59:52;;;;;;;2.17;1.30;;;17.00;93.70;;;;;;5046896;28;20535;-70
2022/05/28 11:02:44;;;;;;;3.57;1.70;;;16.80;94.70;;;;;;5060792;28;20475;-70
2022/05/28 11:05:20;;;;;;;3.40;1.73;;;16.70;95.10;;;;;;5066789;28;20482;-71
2022/05/28 11:07:58;;;;;;;3.27;1.90;;;16.70;95.10;;;;;;5067399;28;20458;-71
2022/05/28 11:10:40;;;;;;;3.27;1.97;;;16.60;93.70;;;;;;5066931;28;20554;-72
2022/05/28 11:13:21;;;;;;;3.90;2.03;;;16.50;94.80;;;;;;5046613;28;20485;-72
2022/05/28 11:16:24;;;;;;;4.43;1.80;;;16.60;94.90;;;;;;5047468;28;20487;-71
2022/05/28 11:19:04;;;;;;;6.83;2.03;;;16.80;95.00;;;;;;4996706;28;20448;-72
2022/05/28 11:21:46;;;;;;;5.70;1.87;;;16.80;95.40;;;;;;5040557;28;20452;-72
2022/05/28 11:24:37;;;;;;;4.40;1.70;;;16.90;94.60;;;;;;5040885;28;21018;-71
2022/05/28 11:27:16;;;;;;;5.10;2.00;;;16.90;93.70;;;;;;5039229;28;20958;-71
2022/05/28 11:29:54;;;;;;;3.03;1.40;;;16.90;93.70;;;;;;5040065;28;20471;-72
2022/05/28 11:32:26;;;;;;;3.80;1.67;;;17.10;93.90;;;;;;5038654;28;20503;-71
2022/05/28 11:34:57;;;;;;;4.67;2.07;;;17.20;93.40;;;;;;5062717;28;20455;-71
2022/05/28 11:37:30;;;;;;;5.30;1.80;;;17.30;94.60;;;;;;5066797;28;20462;-71
2022/05/28 11:40:02;;;;;;;3.10;1.70;;;17.60;94.50;;;;;;5066742;28;20454;-72
2022/05/28 11:42:36;;;;;;;4.50;1.60;;;17.90;93.40;;;;;;5068757;28;20474;-72
2022/05/28 11:45:06;;;;;;;4.77;1.80;;;18.30;93.90;;;;;;5068953;28;20488;-72
2022/05/28 11:47:45;;;;;;;5.33;1.57;;;18.50;92.00;;;;;;5071538;28;20461;-72
2022/05/28 11:53:16;;;;;;;3.40;1.50;;;18.70;91.60;;;;;;5072421;28;20592;-71
2022/05/28 11:55:45;;;;;;;3.53;1.57;;;18.70;90.90;;;;;;5071780;28;20511;-72
2022/05/28 11:58:17;;;;;;;5.13;1.50;;;18.60;90.70;;;;;;5071139;28;20462;-72
2022/05/28 12:00:48;;;;;;;2.80;1.70;;;18.40;90.90;;;;;;5072787;28;20595;-72
2022/05/28 12:03:18;;;;;;;2.73;1.57;;;18.30;91.40;;;;;;5072474;28;20896;-71
2022/05/28 12:05:50;;;;;;;4.00;1.60;;;18.10;92.30;;;;;;5072040;28;20465;-72
2022/05/28 12:08:29;;;;;;;2.43;1.50;;;18.00;93.30;;;;;;5072482;28;20465;-72
2022/05/28 12:10:59;;;;;;;2.40;1.40;;;17.80;92.50;;;;;;5072043;28;20454;-72
2022/05/28 12:13:30;;;;;;;3.40;1.90;;;18.00;91.90;;;;;;5072515;28;20478;-71
2022/05/28 12:16:09;;;;;;;4.10;1.73;;;18.10;90.20;;;;;;5072307;28;20458;-72
2022/05/28 12:18:37;;;;;;;3.50;1.53;;;18.00;90.10;;;;;;5071755;28;20458;-71
2022/05/28 12:21:05;;;;;;;3.67;1.60;;;18.20;90.70;;;;;;5072837;28;20435;-72
2022/05/28 12:23:37;;;;;;;5.47;2.30;;;18.20;91.10;;;;;;5072894;28;20923;-73
2022/05/28 12:26:15;;;;;;;3.20;1.70;;;18.20;91.40;;;;;;5074451;28;20957;-71
2022/05/28 12:28:49;;;;;;;5.00;2.10;;;18.60;92.70;;;;;;5071527;28;20846;-72
2022/05/28 12:31:24;;;;;;;4.00;1.73;;;18.80;92.00;;;;;;5072596;28;20469;-72
2022/05/28 12:33:54;;;;;;;2.97;1.70;;;18.80;91.40;;;;;;5071651;28;20494;-71
2022/05/28 12:36:26;;;;;;;3.43;1.53;;;18.80;92.10;;;;;;5071723;28;21147;-72
2022/05/28 12:39:02;;;;;;;4.70;1.70;;;18.90;92.30;;;;;;5069388;28;20965;-72
2022/05/28 12:41:32;;;;;;;3.67;1.70;;;19.10;91.40;;;;;;5072064;28;20469;-71
2022/05/28 12:44:10;;;;;;;4.77;1.90;;;18.90;91.10;;;;;;5071374;28;20501;-72
2022/05/28 12:46:44;;;;;;;2.30;1.60;;;18.70;90.70;;;;;;5071292;28;20469;-72
2022/05/28 12:49:13;;;;;;;3.40;1.60;;;18.40;91.00;;;;;;5071802;28;20561;-72
2022/05/28 12:52:23;;;;;;;2.47;1.37;;;18.00;91.10;;;;;;5072291;28;20486;-72
2022/05/28 12:55:05;;;;;;;9.73;2.83;;;17.80;91.80;;;;;;5011005;28;20448;-72
2022/05/28 12:57:34;;;;;;;5.63;1.97;;;17.50;92.20;;;;;;5008529;28;20490;-72
2022/05/28 13:00:05;;;;;;;6.20;1.90;;;17.30;92.60;;;;;;5047403;28;20459;-72
2022/05/28 13:02:38;;;;;;;3.50;1.80;;;17.20;92.70;;;;;;5071006;28;20897;-72
2022/05/28 13:05:11;;;;;;;3.70;1.80;;;17.20;92.00;;;;;;5071204;28;20483;-72
2022/05/28 13:07:45;;;;;;;3.30;1.60;;;17.30;92.90;;;;;;5071236;28;20497;-71
2022/05/28 13:10:19;;;;;;;2.17;1.33;;;17.60;91.90;;;;;;5071412;28;20909;-72
2022/05/28 13:12:59;;;;;;;5.07;1.83;;;17.90;92.50;;;;;;5070219;28;20482;-72
2022/05/28 13:15:58;;;;;;;4.20;1.87;;;18.30;92.40;;;;;;5071423;28;20451;-72
2022/05/28 13:18:43;;;;;;;4.20;1.67;;;18.80;92.80;;;;;;5070634;28;20459;-72
2022/05/28 13:21:45;;;;;;;3.20;1.40;;;19.30;90.60;;;;;;5071131;28;20508;-72
2022/05/28 13:24:58;;;;;;;4.23;1.87;;;19.40;90.80;;;;;;5066007;28;20492;-71
2022/05/28 13:27:48;;;;;;;3.03;1.50;;;18.90;91.20;;;;;;5071021;28;20458;-71